sensor_id;sensor_type;location;lat;lon;timestamp;noise_LAeq;noise_LA_min;noise_LA_max;noise_LA01;noise_LA95
80580;Laerm;69939;52.402;6.608;2023-08-08T00:02:03;57.06;34.53;73.57;;
80580;Laerm;69939;52.402;6.608;2023-08-08T00:04:32;53.86;33.40;70.45;;
80580;Laerm;69939;52.402;6.608;2023-08-08T00:07:02;53.71;34.84;72.47;;
80580;Laerm;69939;52.402;6.608;2023-08-08T00:09:34;56.60;34.15;75.23;;
80580;Laerm;69939;52.402;6.608;2023-08-08T00:12:04;50.21;34.51;72.49;;
80580;Laerm;69939;52.402;6.608;2023-08-08T00:14:33;50.18;34.87;63.14;;
80580;Laerm;69939;52.402;6.608;2023-08-08T00:17:03;50.99;34.46;67.31;;
80580;Laerm;69939;52.402;6.608;2023-08-08T00:19:32;53.08;35.20;71.92;;
80580;Laerm;69939;52.402;6.608;2023-08-08T00:22:02;47.96;34.87;65.58;;
80580;Laerm;69939;52.402;6.608;2023-08-08T00:24:34;48.22;33.75;65.69;;
80580;Laerm;69939;52.402;6.608;2023-08-08T00:27:04;49.98;33.29;64.09;;
80580;Laerm;69939;52.402;6.608;2023-08-08T00:29:33;45.72;34.58;59.25;;
80580;Laerm;69939;52.402;6.608;2023-08-08T00:32:03;54.16;34.52;67.24;;
80580;Laerm;69939;52.402;6.608;2023-08-08T00:34:32;54.78;34.14;78.25;;
80580;Laerm;69939;52.402;6.608;2023-08-08T00:37:02;42.39;33.91;60.74;;
80580;Laerm;69939;52.402;6.608;2023-08-08T00:39:33;45.49;33.64;63.21;;
80580;Laerm;69939;52.402;6.608;2023-08-08T00:42:03;49.42;33.52;69.35;;
80580;Laerm;69939;52.402;6.608;2023-08-08T00:44:33;43.36;34.58;59.45;;
80580;Laerm;69939;52.402;6.608;2023-08-08T00:47:03;51.90;33.93;69.60;;
80580;Laerm;69939;52.402;6.608;2023-08-08T00:49:32;51.42;34.39;67.25;;
80580;Laerm;69939;52.402;6.608;2023-08-08T00:52:06;56.56;35.16;71.92;;
80580;Laerm;69939;52.402;6.608;2023-08-08T00:54:38;54.69;34.89;67.96;;
80580;Laerm;69939;52.402;6.608;2023-08-08T00:57:07;52.94;33.30;68.11;;
80580;Laerm;69939;52.402;6.608;2023-08-08T00:59:37;59.34;35.00;75.40;;
80580;Laerm;69939;52.402;6.608;2023-08-08T01:02:06;54.96;34.89;71.42;;
80580;Laerm;69939;52.402;6.608;2023-08-08T01:04:35;55.77;34.45;72.34;;
80580;Laerm;69939;52.402;6.608;2023-08-08T01:07:12;53.13;33.15;69.31;;
80580;Laerm;69939;52.402;6.608;2023-08-08T01:09:54;50.39;33.79;70.74;;
80580;Laerm;69939;52.402;6.608;2023-08-08T01:12:27;53.88;34.65;71.05;;
80580;Laerm;69939;52.402;6.608;2023-08-08T01:14:57;51.33;34.08;72.66;;
80580;Laerm;69939;52.402;6.608;2023-08-08T01:17:27;41.89;33.61;60.54;;
80580;Laerm;69939;52.402;6.608;2023-08-08T01:19:58;42.71;33.67;57.90;;
80580;Laerm;69939;52.402;6.608;2023-08-08T01:22:36;49.10;33.61;67.96;;
80580;Laerm;69939;52.402;6.608;2023-08-08T01:25:10;44.10;33.07;60.63;;
80580;Laerm;69939;52.402;6.608;2023-08-08T01:27:39;52.13;32.81;68.72;;
80580;Laerm;69939;52.402;6.608;2023-08-08T01:30:10;50.55;32.97;67.58;;
80580;Laerm;69939;52.402;6.608;2023-08-08T01:32:39;51.91;33.77;67.51;;
80580;Laerm;69939;52.402;6.608;2023-08-08T01:35:09;59.01;35.10;72.29;;
80580;Laerm;69939;52.402;6.608;2023-08-08T01:37:46;50.11;34.04;65.97;;
80580;Laerm;69939;52.402;6.608;2023-08-08T01:40:20;55.75;34.83;70.52;;
80580;Laerm;69939;52.402;6.608;2023-08-08T01:42:51;52.83;34.05;69.36;;
80580;Laerm;69939;52.402;6.608;2023-08-08T01:45:21;45.35;33.11;59.67;;
80580;Laerm;69939;52.402;6.608;2023-08-08T01:47:51;43.48;32.71;59.92;;
80580;Laerm;69939;52.402;6.608;2023-08-08T01:50:20;48.41;34.15;67.13;;
80580;Laerm;69939;52.402;6.608;2023-08-08T01:52:51;45.07;32.95;60.05;;
80580;Laerm;69939;52.402;6.608;2023-08-08T01:55:22;56.91;34.84;70.77;;
80580;Laerm;69939;52.402;6.608;2023-08-08T01:57:51;51.80;33.75;67.98;;
80580;Laerm;69939;52.402;6.608;2023-08-08T02:00:21;45.47;34.25;64.24;;
80580;Laerm;69939;52.402;6.608;2023-08-08T02:02:50;53.73;34.29;69.12;;
80580;Laerm;69939;52.402;6.608;2023-08-08T02:05:22;55.51;33.04;73.53;;
80580;Laerm;69939;52.402;6.608;2023-08-08T02:07:51;46.65;33.78;63.72;;
80580;Laerm;69939;52.402;6.608;2023-08-08T02:10:23;48.76;34.91;60.71;;
80580;Laerm;69939;52.402;6.608;2023-08-08T02:12:52;47.20;34.23;63.87;;
80580;Laerm;69939;52.402;6.608;2023-08-08T02:15:21;55.53;33.93;71.98;;
80580;Laerm;69939;52.402;6.608;2023-08-08T02:17:50;53.40;34.39;69.77;;
80580;Laerm;69939;52.402;6.608;2023-08-08T02:20:19;57.59;33.92;74.86;;
80580;Laerm;69939;52.402;6.608;2023-08-08T02:22:48;44.00;34.55;58.98;;
80580;Laerm;69939;52.402;6.608;2023-08-08T02:25:18;52.84;33.75;69.78;;
80580;Laerm;69939;52.402;6.608;2023-08-08T02:27:49;44.62;34.24;59.08;;
80580;Laerm;69939;52.402;6.608;2023-08-08T02:30:19;55.38;34.48;73.08;;
80580;Laerm;69939;52.402;6.608;2023-08-08T02:32:48;55.71;35.38;72.81;;
80580;Laerm;69939;52.402;6.608;2023-08-08T02:35:17;57.18;35.15;74.45;;
80580;Laerm;69939;52.402;6.608;2023-08-08T02:37:47;57.83;36.51;70.48;;
80580;Laerm;69939;52.402;6.608;2023-08-08T02:40:16;52.23;34.07;68.38;;
80580;Laerm;69939;52.402;6.608;2023-08-08T02:42:45;55.50;34.07;71.65;;
80580;Laerm;69939;52.402;6.608;2023-08-08T02:45:17;54.32;34.54;68.09;;
80580;Laerm;69939;52.402;6.608;2023-08-08T02:47:46;55.43;34.06;72.50;;
80580;Laerm;69939;52.402;6.608;2023-08-08T02:50:15;42.50;32.73;61.09;;
80580;Laerm;69939;52.402;6.608;2023-08-08T02:52:45;53.19;33.53;69.55;;
80580;Laerm;69939;52.402;6.608;2023-08-08T02:55:14;59.21;35.42;73.71;;
80580;Laerm;69939;52.402;6.608;2023-08-08T02:57:43;50.28;33.62;67.85;;
80580;Laerm;69939;52.402;6.608;2023-08-08T03:00:19;58.12;34.24;72.10;;
80580;Laerm;69939;52.402;6.608;2023-08-08T03:02:48;42.46;33.05;57.87;;
80580;Laerm;69939;52.402;6.608;2023-08-08T03:05:17;42.88;33.53;59.62;;
80580;Laerm;69939;52.402;6.608;2023-08-08T03:07:46;58.99;35.89;72.63;;
80580;Laerm;69939;52.402;6.608;2023-08-08T03:10:15;59.78;34.56;75.86;;
80580;Laerm;69939;52.402;6.608;2023-08-08T03:12:44;59.63;33.54;75.09;;
80580;Laerm;69939;52.402;6.608;2023-08-08T03:15:16;58.21;35.08;72.16;;
80580;Laerm;69939;52.402;6.608;2023-08-08T03:17:46;62.10;43.14;73.53;;
80580;Laerm;69939;52.402;6.608;2023-08-08T03:20:15;59.59;37.39;72.81;;
80580;Laerm;69939;52.402;6.608;2023-08-08T03:22:44;55.42;35.99;71.24;;
80580;Laerm;69939;52.402;6.608;2023-08-08T03:25:15;57.68;36.15;71.68;;
80580;Laerm;69939;52.402;6.608;2023-08-08T03:27:44;55.53;35.56;71.00;;
80580;Laerm;69939;52.402;6.608;2023-08-08T03:30:16;53.36;35.28;67.95;;
80580;Laerm;69939;52.402;6.608;2023-08-08T03:32:45;58.78;36.80;74.18;;
80580;Laerm;69939;52.402;6.608;2023-08-08T03:35:14;61.47;35.80;74.90;;
80580;Laerm;69939;52.402;6.608;2023-08-08T03:37:43;60.63;35.51;73.25;;
80580;Laerm;69939;52.402;6.608;2023-08-08T03:40:12;51.68;34.97;67.55;;
80580;Laerm;69939;52.402;6.608;2023-08-08T03:42:42;62.96;37.35;81.07;;
80580;Laerm;69939;52.402;6.608;2023-08-08T03:45:12;62.35;39.03;76.22;;
80580;Laerm;69939;52.402;6.608;2023-08-08T03:47:43;58.95;37.47;73.65;;
80580;Laerm;69939;52.402;6.608;2023-08-08T03:50:13;57.91;37.64;71.62;;
80580;Laerm;69939;52.402;6.608;2023-08-08T03:52:42;61.55;36.86;76.14;;
80580;Laerm;69939;52.402;6.608;2023-08-08T03:55:11;63.22;36.49;76.91;;
80580;Laerm;69939;52.402;6.608;2023-08-08T03:57:40;61.83;38.21;72.70;;
80580;Laerm;69939;52.402;6.608;2023-08-08T04:00:10;44.16;35.87;60.48;;
80580;Laerm;69939;52.402;6.608;2023-08-08T04:02:42;60.78;37.34;77.04;;
80580;Laerm;69939;52.402;6.608;2023-08-08T04:05:11;57.98;37.56;71.87;;
80580;Laerm;69939;52.402;6.608;2023-08-08T04:07:41;55.69;36.10;70.31;;
80580;Laerm;69939;52.402;6.608;2023-08-08T04:10:10;56.75;38.70;70.38;;
80580;Laerm;69939;52.402;6.608;2023-08-08T04:12:40;59.48;38.11;71.20;;
80580;Laerm;69939;52.402;6.608;2023-08-08T04:15:09;59.03;36.67;71.79;;
80580;Laerm;69939;52.402;6.608;2023-08-08T04:17:43;59.84;37.36;72.70;;
80580;Laerm;69939;52.402;6.608;2023-08-08T04:20:12;57.38;37.09;70.78;;
80580;Laerm;69939;52.402;6.608;2023-08-08T04:22:41;61.72;38.62;73.77;;
80580;Laerm;69939;52.402;6.608;2023-08-08T04:25:11;63.07;39.77;75.81;;
80580;Laerm;69939;52.402;6.608;2023-08-08T04:27:40;59.93;40.29;73.26;;
80580;Laerm;69939;52.402;6.608;2023-08-08T04:30:10;64.03;44.26;77.04;;
80580;Laerm;69939;52.402;6.608;2023-08-08T04:32:39;61.05;40.14;71.67;;
80580;Laerm;69939;52.402;6.608;2023-08-08T04:35:11;61.68;38.96;72.92;;
80580;Laerm;69939;52.402;6.608;2023-08-08T04:37:40;60.74;39.15;72.99;;
80580;Laerm;69939;52.402;6.608;2023-08-08T04:40:10;64.73;45.24;81.29;;
80580;Laerm;69939;52.402;6.608;2023-08-08T04:42:40;61.67;43.32;73.52;;
80580;Laerm;69939;52.402;6.608;2023-08-08T04:45:10;62.74;41.31;73.52;;
80580;Laerm;69939;52.402;6.608;2023-08-08T04:47:39;64.91;43.51;74.69;;
80580;Laerm;69939;52.402;6.608;2023-08-08T04:50:11;63.01;45.54;72.54;;
80580;Laerm;69939;52.402;6.608;2023-08-08T04:52:40;62.01;44.35;72.84;;
80580;Laerm;69939;52.402;6.608;2023-08-08T04:55:10;63.72;44.41;74.27;;
80580;Laerm;69939;52.402;6.608;2023-08-08T04:57:39;63.76;44.58;73.89;;
80580;Laerm;69939;52.402;6.608;2023-08-08T05:00:09;64.34;42.84;75.45;;
80580;Laerm;69939;52.402;6.608;2023-08-08T05:02:39;63.86;44.19;74.99;;
80580;Laerm;69939;52.402;6.608;2023-08-08T05:05:11;64.48;42.64;74.70;;
80580;Laerm;69939;52.402;6.608;2023-08-08T05:07:40;64.30;46.95;73.06;;
80580;Laerm;69939;52.402;6.608;2023-08-08T05:10:07;65.74;47.82;77.12;;
80580;Laerm;69939;52.402;6.608;2023-08-08T05:12:36;64.86;48.03;72.74;;
80580;Laerm;69939;52.402;6.608;2023-08-08T05:15:07;65.75;44.00;74.09;;
80580;Laerm;69939;52.402;6.608;2023-08-08T05:17:36;63.25;43.72;73.20;;
80580;Laerm;69939;52.402;6.608;2023-08-08T05:20:08;66.49;53.19;78.34;;
80580;Laerm;69939;52.402;6.608;2023-08-08T05:22:40;67.44;49.27;74.93;;
80580;Laerm;69939;52.402;6.608;2023-08-08T05:25:09;65.54;44.96;75.85;;
80580;Laerm;69939;52.402;6.608;2023-08-08T05:27:38;61.93;42.11;72.86;;
80580;Laerm;69939;52.402;6.608;2023-08-08T05:30:09;66.03;46.33;77.02;;
80580;Laerm;69939;52.402;6.608;2023-08-08T05:32:38;64.65;46.32;72.46;;
80580;Laerm;69939;52.402;6.608;2023-08-08T05:35:08;65.78;49.17;73.33;;
80580;Laerm;69939;52.402;6.608;2023-08-08T05:37:40;65.33;44.12;74.93;;
80580;Laerm;69939;52.402;6.608;2023-08-08T05:40:11;67.35;46.87;80.96;;
80580;Laerm;69939;52.402;6.608;2023-08-08T05:42:40;69.08;52.59;84.30;;
80580;Laerm;69939;52.402;6.608;2023-08-08T05:45:09;65.49;46.33;74.68;;
80580;Laerm;69939;52.402;6.608;2023-08-08T05:47:38;68.50;47.52;84.72;;
80580;Laerm;69939;52.402;6.608;2023-08-08T05:50:09;68.60;52.82;81.04;;
80580;Laerm;69939;52.402;6.608;2023-08-08T05:52:40;65.39;49.38;72.85;;
80580;Laerm;69939;52.402;6.608;2023-08-08T05:55:10;66.93;48.01;82.77;;
80580;Laerm;69939;52.402;6.608;2023-08-08T05:57:39;69.65;47.27;91.83;;
80580;Laerm;69939;52.402;6.608;2023-08-08T06:00:10;65.28;49.56;81.13;;
80580;Laerm;69939;52.402;6.608;2023-08-08T06:02:39;64.42;41.58;78.69;;
80580;Laerm;69939;52.402;6.608;2023-08-08T06:05:10;65.89;45.10;74.71;;
80580;Laerm;69939;52.402;6.608;2023-08-08T06:07:43;65.08;49.54;75.86;;
80580;Laerm;69939;52.402;6.608;2023-08-08T06:10:12;67.62;43.02;83.74;;
80580;Laerm;69939;52.402;6.608;2023-08-08T06:12:42;75.03;55.32;94.55;;
80580;Laerm;69939;52.402;6.608;2023-08-08T06:15:11;62.90;41.43;76.58;;
80580;Laerm;69939;52.402;6.608;2023-08-08T06:18:15;66.13;46.58;78.42;;
80580;Laerm;69939;52.402;6.608;2023-08-08T06:21:02;65.13;50.87;75.25;;
80580;Laerm;69939;52.402;6.608;2023-08-08T06:23:32;68.46;49.45;81.32;;
80580;Laerm;69939;52.402;6.608;2023-08-08T06:26:01;68.44;49.82;84.51;;
80580;Laerm;69939;52.402;6.608;2023-08-08T06:28:31;66.89;48.90;80.44;;
80580;Laerm;69939;52.402;6.608;2023-08-08T06:31:02;68.02;45.37;87.18;;
80580;Laerm;69939;52.402;6.608;2023-08-08T06:33:31;68.55;49.43;85.34;;
80580;Laerm;69939;52.402;6.608;2023-08-08T06:36:04;68.11;48.89;83.81;;
80580;Laerm;69939;52.402;6.608;2023-08-08T06:38:34;68.68;46.44;82.96;;
80580;Laerm;69939;52.402;6.608;2023-08-08T06:41:03;69.94;49.80;84.48;;
80580;Laerm;69939;52.402;6.608;2023-08-08T06:43:34;65.60;47.32;74.24;;
80580;Laerm;69939;52.402;6.608;2023-08-08T06:46:03;71.19;48.99;89.51;;
80580;Laerm;69939;52.402;6.608;2023-08-08T06:48:32;67.05;48.29;87.42;;
80580;Laerm;69939;52.402;6.608;2023-08-08T06:51:03;71.29;50.06;89.46;;
80580;Laerm;69939;52.402;6.608;2023-08-08T06:53:33;71.46;50.83;85.62;;
80580;Laerm;69939;52.402;6.608;2023-08-08T06:56:02;75.77;46.88;95.16;;
80580;Laerm;69939;52.402;6.608;2023-08-08T06:58:31;67.55;51.56;79.90;;
80580;Laerm;69939;52.402;6.608;2023-08-08T07:01:02;71.71;50.36;88.34;;
80580;Laerm;69939;52.402;6.608;2023-08-08T07:03:32;72.68;50.45;91.40;;
80580;Laerm;69939;52.402;6.608;2023-08-08T07:06:03;66.62;51.38;79.40;;
80580;Laerm;69939;52.402;6.608;2023-08-08T07:08:33;66.82;47.86;81.91;;
80580;Laerm;69939;52.402;6.608;2023-08-08T07:11:05;70.49;55.70;87.02;;
80580;Laerm;69939;52.402;6.608;2023-08-08T07:13:34;68.20;51.77;83.00;;
80580;Laerm;69939;52.402;6.608;2023-08-08T07:16:04;66.65;47.46;82.42;;
80580;Laerm;69939;52.402;6.608;2023-08-08T07:18:33;66.76;47.54;83.88;;
80580;Laerm;69939;52.402;6.608;2023-08-08T07:21:05;66.19;49.52;76.40;;
80580;Laerm;69939;52.402;6.608;2023-08-08T07:23:35;67.38;50.62;81.68;;
80580;Laerm;69939;52.402;6.608;2023-08-08T07:26:04;74.97;50.68;95.43;;
80580;Laerm;69939;52.402;6.608;2023-08-08T07:28:33;71.88;49.99;85.98;;
80580;Laerm;69939;52.402;6.608;2023-08-08T07:31:03;75.15;51.56;91.92;;
80580;Laerm;69939;52.402;6.608;2023-08-08T07:33:33;72.39;48.11;90.09;;
80580;Laerm;69939;52.402;6.608;2023-08-08T07:36:05;69.78;49.48;84.88;;
80580;Laerm;69939;52.402;6.608;2023-08-08T07:38:34;71.07;47.22;87.37;;
80580;Laerm;69939;52.402;6.608;2023-08-08T07:41:04;66.43;47.85;80.64;;
80580;Laerm;69939;52.402;6.608;2023-08-08T07:43:33;70.51;46.41;87.49;;
80580;Laerm;69939;52.402;6.608;2023-08-08T07:46:02;67.48;47.67;84.48;;
80580;Laerm;69939;52.402;6.608;2023-08-08T07:48:31;73.53;54.69;91.15;;
80580;Laerm;69939;52.402;6.608;2023-08-08T07:51:01;67.41;45.43;79.49;;
80580;Laerm;69939;52.402;6.608;2023-08-08T07:53:32;66.04;48.03;84.08;;
80580;Laerm;69939;52.402;6.608;2023-08-08T07:56:01;66.16;43.91;79.06;;
80580;Laerm;69939;52.402;6.608;2023-08-08T07:58:31;70.23;51.11;83.95;;
80580;Laerm;69939;52.402;6.608;2023-08-08T08:01:01;73.53;51.34;91.85;;
80580;Laerm;69939;52.402;6.608;2023-08-08T08:03:31;72.64;47.60;90.95;;
80580;Laerm;69939;52.402;6.608;2023-08-08T08:06:01;70.55;51.02;86.97;;
80580;Laerm;69939;52.402;6.608;2023-08-08T08:08:36;76.14;48.46;95.11;;
80580;Laerm;69939;52.402;6.608;2023-08-08T08:11:05;74.60;48.92;88.83;;
80580;Laerm;69939;52.402;6.608;2023-08-08T08:13:35;69.16;49.65;88.06;;
80580;Laerm;69939;52.402;6.608;2023-08-08T08:16:06;66.79;46.80;80.95;;
80580;Laerm;69939;52.402;6.608;2023-08-08T08:18:35;72.41;51.92;88.45;;
80580;Laerm;69939;52.402;6.608;2023-08-08T08:21:04;74.12;50.91;90.53;;
80580;Laerm;69939;52.402;6.608;2023-08-08T08:23:36;81.22;48.67;98.59;;
80580;Laerm;69939;52.402;6.608;2023-08-08T08:26:06;70.00;49.98;84.27;;
80580;Laerm;69939;52.402;6.608;2023-08-08T08:28:35;74.38;51.40;91.04;;
80580;Laerm;69939;52.402;6.608;2023-08-08T08:31:06;70.24;47.33;89.00;;
80580;Laerm;69939;52.402;6.608;2023-08-08T08:33:35;72.81;51.37;89.15;;
80580;Laerm;69939;52.402;6.608;2023-08-08T08:36:05;74.23;48.74;93.43;;
80580;Laerm;69939;52.402;6.608;2023-08-08T08:38:37;66.38;46.87;81.29;;
80580;Laerm;69939;52.402;6.608;2023-08-08T08:41:08;71.57;48.91;91.61;;
80580;Laerm;69939;52.402;6.608;2023-08-08T08:43:41;68.31;52.38;83.25;;
80580;Laerm;69939;52.402;6.608;2023-08-08T08:46:11;66.65;49.87;83.59;;
80580;Laerm;69939;52.402;6.608;2023-08-08T08:48:45;72.77;45.90;91.46;;
80580;Laerm;69939;52.402;6.608;2023-08-08T08:51:15;73.28;55.03;86.86;;
80580;Laerm;69939;52.402;6.608;2023-08-08T08:53:47;71.53;51.64;85.85;;
80580;Laerm;69939;52.402;6.608;2023-08-08T08:56:16;69.81;51.10;91.52;;
80580;Laerm;69939;52.402;6.608;2023-08-08T08:58:46;71.12;52.38;88.66;;
80580;Laerm;69939;52.402;6.608;2023-08-08T09:01:15;75.28;48.85;91.56;;
80580;Laerm;69939;52.402;6.608;2023-08-08T09:03:46;73.11;49.43;89.85;;
80580;Laerm;69939;52.402;6.608;2023-08-08T09:06:15;74.06;49.66;94.46;;
80580;Laerm;69939;52.402;6.608;2023-08-08T09:08:49;75.88;54.29;95.44;;
80580;Laerm;69939;52.402;6.608;2023-08-08T09:11:18;71.95;52.89;89.53;;
80580;Laerm;69939;52.402;6.608;2023-08-08T09:13:47;73.07;53.55;91.03;;
80580;Laerm;69939;52.402;6.608;2023-08-08T09:16:16;78.25;50.13;98.23;;
80580;Laerm;69939;52.402;6.608;2023-08-08T09:18:45;66.19;50.30;82.40;;
80580;Laerm;69939;52.402;6.608;2023-08-08T09:21:14;67.12;50.95;81.95;;
80580;Laerm;69939;52.402;6.608;2023-08-08T09:23:43;65.40;47.93;81.78;;
80580;Laerm;69939;52.402;6.608;2023-08-08T09:26:16;68.69;47.80;84.84;;
80580;Laerm;69939;52.402;6.608;2023-08-08T09:28:45;67.75;46.57;87.15;;
80580;Laerm;69939;52.402;6.608;2023-08-08T09:31:14;67.88;49.30;81.47;;
80580;Laerm;69939;52.402;6.608;2023-08-08T09:33:44;67.15;46.97;83.37;;
80580;Laerm;69939;52.402;6.608;2023-08-08T09:36:14;75.27;51.12;92.75;;
80580;Laerm;69939;52.402;6.608;2023-08-08T09:38:45;64.74;46.33;73.37;;
80580;Laerm;69939;52.402;6.608;2023-08-08T09:41:17;64.58;48.18;72.17;;
80580;Laerm;69939;52.402;6.608;2023-08-08T09:43:48;65.58;49.46;76.61;;
80580;Laerm;69939;52.402;6.608;2023-08-08T09:46:19;65.23;45.71;77.38;;
80580;Laerm;69939;52.402;6.608;2023-08-08T09:48:50;76.60;49.30;97.15;;
80580;Laerm;69939;52.402;6.608;2023-08-08T09:51:21;67.80;46.41;83.76;;
80580;Laerm;69939;52.402;6.608;2023-08-08T09:53:51;70.65;48.69;85.18;;
80580;Laerm;69939;52.402;6.608;2023-08-08T09:56:24;84.55;53.30;99.98;;
80580;Laerm;69939;52.402;6.608;2023-08-08T09:58:53;68.72;50.14;83.00;;
80580;Laerm;69939;52.402;6.608;2023-08-08T10:01:25;68.16;49.54;80.06;;
80580;Laerm;69939;52.402;6.608;2023-08-08T10:03:56;67.13;46.89;80.28;;
80580;Laerm;69939;52.402;6.608;2023-08-08T10:06:27;71.46;50.47;90.13;;
80580;Laerm;69939;52.402;6.608;2023-08-08T10:08:59;67.25;51.75;76.91;;
80580;Laerm;69939;52.402;6.608;2023-08-08T10:11:35;73.86;49.23;92.66;;
80580;Laerm;69939;52.402;6.608;2023-08-08T10:14:10;70.69;52.80;86.79;;
80580;Laerm;69939;52.402;6.608;2023-08-08T10:16:41;75.24;50.97;93.95;;
80580;Laerm;69939;52.402;6.608;2023-08-08T10:19:12;69.68;49.35;85.73;;
80580;Laerm;69939;52.402;6.608;2023-08-08T10:21:44;71.96;50.85;87.16;;
80580;Laerm;69939;52.402;6.608;2023-08-08T10:24:21;73.13;46.90;88.52;;
80580;Laerm;69939;52.402;6.608;2023-08-08T10:26:58;68.49;48.67;80.06;;
80580;Laerm;69939;52.402;6.608;2023-08-08T10:29:30;75.70;54.43;93.61;;
80580;Laerm;69939;52.402;6.608;2023-08-08T10:32:02;77.88;49.27;94.28;;
80580;Laerm;69939;52.402;6.608;2023-08-08T10:34:41;80.58;54.85;100.03;;
80580;Laerm;69939;52.402;6.608;2023-08-08T10:37:13;73.02;52.59;87.59;;
80580;Laerm;69939;52.402;6.608;2023-08-08T10:39:53;72.09;51.49;90.08;;
80580;Laerm;69939;52.402;6.608;2023-08-08T10:42:27;77.57;54.99;94.52;;
80580;Laerm;69939;52.402;6.608;2023-08-08T10:45:03;72.49;50.92;91.41;;
80580;Laerm;69939;52.402;6.608;2023-08-08T10:47:34;77.16;54.58;91.73;;
80580;Laerm;69939;52.402;6.608;2023-08-08T10:50:08;77.42;55.07;95.49;;
80580;Laerm;69939;52.402;6.608;2023-08-08T10:53:01;75.79;56.77;94.24;;
80580;Laerm;69939;52.402;6.608;2023-08-08T10:55:34;72.82;50.84;95.10;;
80580;Laerm;69939;52.402;6.608;2023-08-08T10:58:10;65.57;47.43;81.05;;
80580;Laerm;69939;52.402;6.608;2023-08-08T11:00:41;75.80;49.93;92.37;;
80580;Laerm;69939;52.402;6.608;2023-08-08T11:03:11;68.82;51.06;82.13;;
80580;Laerm;69939;52.402;6.608;2023-08-08T11:05:40;66.87;52.26;79.72;;
80580;Laerm;69939;52.402;6.608;2023-08-08T11:08:12;68.98;49.70;83.78;;
80580;Laerm;69939;52.402;6.608;2023-08-08T11:10:41;74.66;55.13;91.05;;
80580;Laerm;69939;52.402;6.608;2023-08-08T11:13:13;73.42;49.69;90.20;;
80580;Laerm;69939;52.402;6.608;2023-08-08T11:15:42;72.82;46.85;93.97;;
80580;Laerm;69939;52.402;6.608;2023-08-08T11:18:11;73.17;45.30;92.52;;
80580;Laerm;69939;52.402;6.608;2023-08-08T11:20:40;67.58;49.10;84.28;;
80580;Laerm;69939;52.402;6.608;2023-08-08T11:23:10;69.38;49.41;82.43;;
80580;Laerm;69939;52.402;6.608;2023-08-08T11:25:41;71.05;52.00;88.66;;
80580;Laerm;69939;52.402;6.608;2023-08-08T11:28:14;68.11;51.34;81.93;;
80580;Laerm;69939;52.402;6.608;2023-08-08T11:30:45;69.58;52.82;87.65;;
80580;Laerm;69939;52.402;6.608;2023-08-08T11:33:16;67.55;50.33;77.97;;
80580;Laerm;69939;52.402;6.608;2023-08-08T11:35:46;66.53;45.31;77.49;;
80580;Laerm;69939;52.402;6.608;2023-08-08T11:38:16;69.29;48.69;87.54;;
80580;Laerm;69939;52.402;6.608;2023-08-08T11:40:45;71.52;49.94;86.25;;
80580;Laerm;69939;52.402;6.608;2023-08-08T11:43:17;73.03;52.70;87.75;;
80580;Laerm;69939;52.402;6.608;2023-08-08T11:45:48;70.00;51.30;84.97;;
80580;Laerm;69939;52.402;6.608;2023-08-08T11:48:20;70.23;48.39;90.99;;
80580;Laerm;69939;52.402;6.608;2023-08-08T11:50:52;79.02;51.93;92.86;;
80580;Laerm;69939;52.402;6.608;2023-08-08T11:53:23;75.89;50.05;92.81;;
80580;Laerm;69939;52.402;6.608;2023-08-08T11:55:52;69.87;48.87;90.70;;
80580;Laerm;69939;52.402;6.608;2023-08-08T11:58:27;78.71;52.56;100.63;;
80580;Laerm;69939;52.402;6.608;2023-08-08T12:00:58;81.07;55.66;96.43;;
80580;Laerm;69939;52.402;6.608;2023-08-08T12:03:28;70.76;49.18;88.14;;
80580;Laerm;69939;52.402;6.608;2023-08-08T12:05:58;70.69;51.98;90.42;;
80580;Laerm;69939;52.402;6.608;2023-08-08T12:08:33;78.10;56.37;93.71;;
80580;Laerm;69939;52.402;6.608;2023-08-08T12:11:02;78.50;54.87;92.85;;
80580;Laerm;69939;52.402;6.608;2023-08-08T12:13:37;72.43;51.05;89.40;;
80580;Laerm;69939;52.402;6.608;2023-08-08T12:16:10;78.49;54.72;97.07;;
80580;Laerm;69939;52.402;6.608;2023-08-08T12:18:40;69.16;48.73;86.47;;
80580;Laerm;69939;52.402;6.608;2023-08-08T12:21:10;78.17;49.72;96.87;;
80580;Laerm;69939;52.402;6.608;2023-08-08T12:23:39;71.67;53.93;90.96;;
80580;Laerm;69939;52.402;6.608;2023-08-08T12:26:09;70.33;50.79;86.07;;
80580;Laerm;69939;52.402;6.608;2023-08-08T12:28:41;71.46;46.92;93.67;;
80580;Laerm;69939;52.402;6.608;2023-08-08T12:31:10;80.98;50.71;96.65;;
80580;Laerm;69939;52.402;6.608;2023-08-08T12:33:40;70.14;49.78;85.06;;
80580;Laerm;69939;52.402;6.608;2023-08-08T12:36:09;76.65;54.13;95.69;;
80580;Laerm;69939;52.402;6.608;2023-08-08T12:38:38;74.55;51.84;90.20;;
80580;Laerm;69939;52.402;6.608;2023-08-08T12:41:07;75.49;54.00;92.80;;
80580;Laerm;69939;52.402;6.608;2023-08-08T12:43:36;80.36;54.33;94.24;;
80580;Laerm;69939;52.402;6.608;2023-08-08T12:46:08;77.08;56.23;93.09;;
80580;Laerm;69939;52.402;6.608;2023-08-08T12:48:37;70.17;49.41;88.29;;
80580;Laerm;69939;52.402;6.608;2023-08-08T12:51:06;72.09;52.29;91.47;;
80580;Laerm;69939;52.402;6.608;2023-08-08T12:53:36;77.65;49.79;96.47;;
80580;Laerm;69939;52.402;6.608;2023-08-08T12:56:05;76.54;54.23;95.15;;
80580;Laerm;69939;52.402;6.608;2023-08-08T12:58:34;82.78;60.85;98.41;;
80580;Laerm;69939;52.402;6.608;2023-08-08T13:01:04;73.57;53.20;89.24;;
80580;Laerm;69939;52.402;6.608;2023-08-08T13:03:36;76.50;52.99;95.36;;
80580;Laerm;69939;52.402;6.608;2023-08-08T13:06:05;73.51;52.28;88.79;;
80580;Laerm;69939;52.402;6.608;2023-08-08T13:08:36;71.42;51.47;91.23;;
80580;Laerm;69939;52.402;6.608;2023-08-08T13:11:06;73.66;48.50;91.81;;
80580;Laerm;69939;52.402;6.608;2023-08-08T13:13:35;74.00;52.87;90.86;;
80580;Laerm;69939;52.402;6.608;2023-08-08T13:16:10;66.75;47.23;82.32;;
80580;Laerm;69939;52.402;6.608;2023-08-08T13:18:42;71.86;53.77;87.76;;
80580;Laerm;69939;52.402;6.608;2023-08-08T13:21:12;72.73;51.54;87.73;;
80580;Laerm;69939;52.402;6.608;2023-08-08T13:23:41;82.31;56.62;98.22;;
80580;Laerm;69939;52.402;6.608;2023-08-08T13:26:11;75.43;47.34;93.24;;
80580;Laerm;69939;52.402;6.608;2023-08-08T13:28:40;69.11;51.17;88.89;;
80580;Laerm;69939;52.402;6.608;2023-08-08T13:31:09;69.70;49.99;84.77;;
80580;Laerm;69939;52.402;6.608;2023-08-08T13:33:41;78.10;54.69;93.06;;
80580;Laerm;69939;52.402;6.608;2023-08-08T13:36:10;77.60;51.29;101.09;;
80580;Laerm;69939;52.402;6.608;2023-08-08T13:38:40;70.08;49.36;89.77;;
80580;Laerm;69939;52.402;6.608;2023-08-08T13:41:09;74.21;52.59;90.23;;
80580;Laerm;69939;52.402;6.608;2023-08-08T13:43:38;71.32;50.40;84.57;;
80580;Laerm;69939;52.402;6.608;2023-08-08T13:46:07;79.56;51.79;100.58;;
80580;Laerm;69939;52.402;6.608;2023-08-08T13:48:36;67.24;50.23;86.17;;
80580;Laerm;69939;52.402;6.608;2023-08-08T13:51:08;74.69;50.46;89.71;;
80580;Laerm;69939;52.402;6.608;2023-08-08T13:53:37;67.82;50.05;82.94;;
80580;Laerm;69939;52.402;6.608;2023-08-08T13:56:06;71.99;44.61;91.41;;
80580;Laerm;69939;52.402;6.608;2023-08-08T13:58:36;63.75;47.82;75.70;;
80580;Laerm;69939;52.402;6.608;2023-08-08T14:01:05;70.84;48.00;89.31;;
80580;Laerm;69939;52.402;6.608;2023-08-08T14:03:35;72.11;52.44;90.60;;